createdAt,value
2023-05-11T00:01:46.937Z,8.38
2023-05-11T00:04:14.719Z,8.32
2023-05-11T00:06:42.266Z,8.24
2023-05-11T00:09:11.026Z,8.19
2023-05-11T00:11:38.670Z,8.15
2023-05-11T00:14:06.413Z,8.10
2023-05-11T00:16:33.999Z,8.05
2023-05-11T00:19:01.671Z,8.02
2023-05-11T00:21:29.312Z,7.98
2023-05-11T00:23:57.063Z,7.96
2023-05-11T00:26:26.100Z,7.88
2023-05-11T00:28:53.677Z,7.81
2023-05-11T00:31:21.490Z,7.75
2023-05-11T00:33:49.055Z,7.68
2023-05-11T00:36:16.541Z,7.60
2023-05-11T00:38:44.318Z,7.53
2023-05-11T00:41:11.887Z,7.44
2023-05-11T00:43:40.089Z,7.36
2023-05-11T00:46:07.805Z,7.31
2023-05-11T00:48:36.154Z,7.23
2023-05-11T00:51:04.147Z,7.17
2023-05-11T00:53:31.608Z,7.07
2023-05-11T00:55:59.340Z,7.01
2023-05-11T00:58:27.240Z,6.94
2023-05-11T01:00:54.847Z,6.90
2023-05-11T01:03:23.111Z,6.86
2023-05-11T01:06:14.462Z,6.85
2023-05-11T01:09:06.082Z,6.83
2023-05-11T01:11:45.678Z,6.77
2023-05-11T01:14:30.609Z,6.76
2023-05-11T01:17:04.137Z,6.72
2023-05-11T01:19:43.279Z,6.67
2023-05-11T01:22:55.026Z,6.67
2023-05-11T01:25:54.409Z,6.66
2023-05-11T01:28:44.165Z,6.61
2023-05-11T01:31:13.696Z,6.54
2023-05-11T01:33:49.435Z,6.52
2023-05-11T01:36:19.630Z,6.50
2023-05-11T01:38:50.655Z,6.49
2023-05-11T01:41:21.921Z,6.49
2023-05-11T01:43:57.714Z,6.44
2023-05-11T01:46:27.288Z,6.43
2023-05-11T01:48:58.894Z,6.42
2023-05-11T01:51:30.830Z,6.39
2023-05-11T01:53:59.715Z,6.37
2023-05-11T01:56:28.990Z,6.34
2023-05-11T01:58:59.177Z,6.33
2023-05-11T02:01:28.937Z,6.31
2023-05-11T02:03:59.280Z,6.31
2023-05-11T02:06:29.000Z,6.29
2023-05-11T02:09:00.820Z,6.27
2023-05-11T02:11:30.911Z,6.24
2023-05-11T02:14:00.597Z,6.20
2023-05-11T02:16:31.515Z,6.17
2023-05-11T02:19:00.256Z,6.14
2023-05-11T02:21:31.228Z,6.11
2023-05-11T02:24:02.718Z,6.09
2023-05-11T02:26:30.495Z,6.04
2023-05-11T02:28:58.068Z,6.00
2023-05-11T02:31:32.605Z,5.98
2023-05-11T02:34:07.924Z,5.93
2023-05-11T02:36:38.078Z,5.92
2023-05-11T02:39:10.209Z,5.90
2023-05-11T02:41:42.439Z,5.88
2023-05-11T02:44:14.046Z,5.87
2023-05-11T02:46:44.708Z,5.86
2023-05-11T02:49:15.190Z,5.85
2023-05-11T02:51:45.558Z,5.82
2023-05-11T02:54:16.557Z,5.82
2023-05-11T02:56:47.072Z,5.80
2023-05-11T02:59:15.415Z,5.81
2023-05-11T03:01:45.448Z,5.81
2023-05-11T03:04:18.909Z,5.78
2023-05-11T03:06:46.801Z,5.77
2023-05-11T03:09:14.661Z,5.75
2023-05-11T03:11:45.512Z,5.76
2023-05-11T03:14:14.130Z,5.79
2023-05-11T03:16:43.496Z,5.79
2023-05-11T03:19:13.161Z,5.81
2023-05-11T03:21:41.571Z,5.84
2023-05-11T03:24:10.807Z,5.87
2023-05-11T03:26:40.493Z,5.90
2023-05-11T03:29:10.110Z,6.03
2023-05-11T03:31:39.882Z,6.42
2023-05-11T03:34:07.937Z,7.14
2023-05-11T03:36:39.675Z,7.87
2023-05-11T03:39:08.952Z,8.59
2023-05-11T03:41:40.659Z,9.37
2023-05-11T03:44:11.233Z,10.14
2023-05-11T03:46:41.787Z,10.40
2023-05-11T03:49:12.857Z,10.56
2023-05-11T03:51:40.905Z,11.37
2023-05-11T03:54:08.883Z,12.22
2023-05-11T03:56:38.672Z,13.03
2023-05-11T03:59:07.623Z,13.70
2023-05-11T04:01:36.316Z,14.31
2023-05-11T04:04:04.578Z,14.93
2023-05-11T04:06:32.427Z,15.53
2023-05-11T04:09:01.949Z,16.13
2023-05-11T04:11:30.111Z,16.67
2023-05-11T04:13:57.670Z,17.20
2023-05-11T04:16:25.533Z,17.56
2023-05-11T04:18:56.604Z,17.89
2023-05-11T04:21:26.262Z,17.83
2023-05-11T04:23:54.186Z,17.00
2023-05-11T04:26:22.186Z,16.30
2023-05-11T04:28:50.049Z,15.43
2023-05-11T04:31:17.785Z,14.64
2023-05-11T04:33:46.540Z,14.59
2023-05-11T04:36:14.946Z,14.27
2023-05-11T04:38:42.717Z,13.78
2023-05-11T04:41:11.174Z,14.47
2023-05-11T04:43:40.555Z,15.48
2023-05-11T04:46:09.721Z,16.42
2023-05-11T04:48:41.307Z,17.30
2023-05-11T04:51:09.418Z,17.63
2023-05-11T04:53:39.027Z,17.46
2023-05-11T04:56:07.010Z,17.68
2023-05-11T04:58:34.810Z,18.02
2023-05-11T05:01:02.579Z,18.32
2023-05-11T05:03:30.420Z,18.44
2023-05-11T05:05:59.214Z,18.63
2023-05-11T05:08:27.041Z,18.71
2023-05-11T05:10:54.861Z,18.95
2023-05-11T05:13:23.768Z,19.22
2023-05-11T05:19:15.039Z,19.35
2023-05-11T05:28:42.576Z,19.09
2023-05-11T05:31:10.753Z,19.49
2023-05-11T05:33:38.559Z,19.74
2023-05-11T05:36:09.173Z,19.66
2023-05-11T05:38:37.704Z,19.87
2023-05-11T05:41:06.133Z,20.08
2023-05-11T05:43:35.997Z,19.91
2023-05-11T05:46:06.032Z,19.79
2023-05-11T05:48:33.933Z,19.69
2023-05-11T05:51:04.396Z,19.35
2023-05-11T05:53:31.866Z,19.40
2023-05-11T05:55:59.227Z,19.71
2023-05-11T05:58:27.406Z,19.82
2023-05-11T06:00:55.067Z,20.13
2023-05-11T06:03:23.005Z,20.23
2023-05-11T06:05:50.716Z,20.19
2023-05-11T06:08:19.368Z,20.23
2023-05-11T06:10:48.205Z,20.29
2023-05-11T06:13:16.707Z,20.53
2023-05-11T06:15:45.289Z,20.63
2023-05-11T06:18:17.397Z,20.58
2023-05-11T06:20:55.246Z,20.86
2023-05-11T06:23:29.456Z,20.91
2023-05-11T06:25:58.393Z,20.91
2023-05-11T06:28:27.160Z,21.09
2023-05-11T06:30:59.914Z,21.15
2023-05-11T06:33:34.729Z,21.36
2023-05-11T06:36:07.406Z,21.59
2023-05-11T06:38:39.723Z,22.00
2023-05-11T06:41:10.267Z,22.28
2023-05-11T06:43:38.497Z,22.29
2023-05-11T06:46:08.348Z,22.31
2023-05-11T06:48:36.003Z,22.37
2023-05-11T06:51:04.316Z,22.58
2023-05-11T06:53:32.007Z,22.43
2023-05-11T06:56:01.985Z,21.80
2023-05-11T06:58:29.788Z,21.38
2023-05-11T07:00:57.873Z,21.03
2023-05-11T07:03:33.497Z,20.56
2023-05-11T07:06:06.449Z,20.07
2023-05-11T07:08:34.164Z,19.61
2023-05-11T07:11:02.060Z,19.73
2023-05-11T07:13:30.674Z,19.97
2023-05-11T07:16:00.001Z,20.13
2023-05-11T07:18:28.754Z,20.23
2023-05-11T07:20:58.169Z,19.92
2023-05-11T07:23:26.045Z,19.77
2023-05-11T07:25:55.255Z,19.45
2023-05-11T07:28:22.910Z,19.11
2023-05-11T07:30:51.388Z,18.81
2023-05-11T07:33:20.885Z,18.77
2023-05-11T07:35:48.699Z,18.82
2023-05-11T07:38:17.773Z,19.03
2023-05-11T07:40:46.239Z,18.99
2023-05-11T07:43:14.119Z,19.41
2023-05-11T07:45:42.216Z,19.30
2023-05-11T07:48:10.097Z,19.29
2023-05-11T07:50:38.041Z,19.07
2023-05-11T07:53:05.511Z,18.95
2023-05-11T07:55:33.363Z,18.68
2023-05-11T07:58:00.905Z,18.40
2023-05-11T08:00:29.398Z,18.32
2023-05-11T08:02:57.255Z,18.39
2023-05-11T08:05:25.649Z,18.34
2023-05-11T08:07:53.392Z,18.14
2023-05-11T08:10:21.448Z,18.19
2023-05-11T08:12:49.176Z,18.34
2023-05-11T08:15:17.489Z,18.35
2023-05-11T08:17:46.162Z,18.28
2023-05-11T08:20:15.268Z,18.11
2023-05-11T08:22:43.896Z,17.87
2023-05-11T08:25:13.161Z,17.77
2023-05-11T08:27:41.799Z,17.84
2023-05-11T08:30:12.121Z,17.97
2023-05-11T08:32:57.066Z,18.03
2023-05-11T08:35:09.808Z,18.16
2023-05-11T08:37:37.629Z,18.51
2023-05-11T08:40:06.584Z,18.36
2023-05-11T08:42:35.280Z,18.27
2023-05-11T08:45:05.135Z,18.42
2023-05-11T08:47:33.782Z,18.99
2023-05-11T08:50:01.628Z,19.39
2023-05-11T08:52:30.972Z,19.55
2023-05-11T08:55:01.393Z,19.70
2023-05-11T08:57:32.072Z,19.75
2023-05-11T09:00:04.681Z,19.63
2023-05-11T09:02:33.465Z,19.21
2023-05-11T09:05:04.106Z,19.23
2023-05-11T09:07:36.207Z,18.98
2023-05-11T09:10:05.367Z,18.76
2023-05-11T09:12:33.416Z,19.02
2023-05-11T09:15:02.509Z,18.69
2023-05-11T09:17:30.436Z,18.32
2023-05-11T09:20:07.865Z,18.12
2023-05-11T09:22:47.203Z,17.79
2023-05-11T09:25:19.198Z,17.60
2023-05-11T09:27:56.783Z,17.58
2023-05-11T09:30:26.200Z,17.40
2023-05-11T09:33:00.970Z,17.22
2023-05-11T09:35:35.946Z,17.13
2023-05-11T09:38:09.627Z,17.01
2023-05-11T09:40:43.361Z,16.88
2023-05-11T09:43:27.846Z,16.88
2023-05-11T09:46:00.208Z,16.96
2023-05-11T09:48:35.630Z,17.03
2023-05-11T09:51:28.676Z,17.13
2023-05-11T09:54:23.558Z,17.33
2023-05-11T09:56:58.892Z,17.38
2023-05-11T09:59:41.259Z,17.39
2023-05-11T10:02:29.198Z,17.46
2023-05-11T10:04:59.920Z,17.61
2023-05-11T10:07:33.050Z,17.92
2023-05-11T10:10:07.873Z,17.95
2023-05-11T10:12:38.818Z,17.73
2023-05-11T10:15:10.010Z,17.41
2023-05-11T10:17:38.148Z,17.33
2023-05-11T10:20:07.668Z,17.35
2023-05-11T10:22:36.615Z,17.30
2023-05-11T10:25:06.284Z,17.26
2023-05-11T10:27:34.298Z,17.22
2023-05-11T10:30:03.610Z,17.22
2023-05-11T10:32:34.319Z,17.00
2023-05-11T10:35:06.010Z,17.01
2023-05-11T10:37:34.888Z,16.98
2023-05-11T10:40:04.311Z,16.89
2023-05-11T10:42:58.176Z,17.03
2023-05-11T10:45:54.197Z,17.14
2023-05-11T10:48:46.601Z,17.12
2023-05-11T10:51:40.230Z,17.25
2023-05-11T10:54:28.445Z,17.39
2023-05-11T10:57:23.097Z,17.44
2023-05-11T11:00:14.965Z,17.49
2023-05-11T11:02:44.719Z,17.57
2023-05-11T11:05:14.545Z,17.48
2023-05-11T11:08:05.284Z,17.34
2023-05-11T11:10:40.411Z,17.37
2023-05-11T11:13:11.087Z,17.58
2023-05-11T11:16:00.514Z,17.67
2023-05-11T11:18:36.702Z,17.50
2023-05-11T11:21:15.693Z,17.24
2023-05-11T11:23:54.339Z,17.19
2023-05-11T11:26:51.332Z,17.58
2023-05-11T11:29:19.526Z,17.89
2023-05-11T11:31:47.356Z,18.10
2023-05-11T11:34:32.903Z,17.98
2023-05-11T11:37:03.145Z,18.10
2023-05-11T11:39:50.304Z,18.16
2023-05-11T11:42:35.174Z,18.27
2023-05-11T11:45:29.971Z,18.22
2023-05-11T11:48:13.716Z,18.14
2023-05-11T11:50:47.442Z,18.01
2023-05-11T11:53:42.078Z,17.92
2023-05-11T11:56:23.586Z,18.02
2023-05-11T11:59:00.890Z,18.04
2023-05-11T12:01:38.343Z,18.06
2023-05-11T12:04:26.748Z,18.25
2023-05-11T12:06:58.999Z,18.43
2023-05-11T12:09:27.132Z,18.48
2023-05-11T12:11:56.965Z,18.63
2023-05-11T12:14:27.743Z,18.69
2023-05-11T12:17:03.804Z,18.81
2023-05-11T12:19:31.520Z,18.90
2023-05-11T12:21:59.972Z,18.79
2023-05-11T12:24:27.783Z,18.63
2023-05-11T12:26:57.307Z,18.49
2023-05-11T12:29:27.073Z,18.33
2023-05-11T12:31:55.791Z,18.24
2023-05-11T12:34:23.325Z,18.20
2023-05-11T12:36:53.655Z,18.26
2023-05-11T12:39:25.875Z,18.26
2023-05-11T12:41:55.834Z,18.17
2023-05-11T12:44:26.295Z,18.11
2023-05-11T12:46:57.386Z,18.00
2023-05-11T12:49:27.315Z,18.00
2023-05-11T12:52:08.358Z,18.02
2023-05-11T12:54:43.044Z,17.98
2023-05-11T13:00:18.568Z,18.03
2023-05-11T13:02:53.086Z,17.96
2023-05-11T13:05:30.601Z,18.01
2023-05-11T13:08:01.435Z,18.01
2023-05-11T13:10:29.230Z,17.90
2023-05-11T13:12:56.982Z,17.68
2023-05-11T13:15:27.864Z,17.56
2023-05-11T13:17:59.354Z,17.47
2023-05-11T13:20:31.254Z,17.49
2023-05-11T13:23:15.203Z,17.55
2023-05-11T13:25:54.624Z,17.54
2023-05-11T13:28:25.895Z,17.46
2023-05-11T13:31:00.536Z,17.49
2023-05-11T13:33:28.346Z,17.45
2023-05-11T13:35:57.907Z,17.39
2023-05-11T13:38:25.842Z,17.48
2023-05-11T13:40:58.581Z,17.50
2023-05-11T13:43:27.528Z,17.51
2023-05-11T13:45:55.489Z,17.51
2023-05-11T13:48:23.956Z,17.41
2023-05-11T13:50:52.150Z,17.37
2023-05-11T13:53:19.928Z,17.24
2023-05-11T13:55:47.821Z,17.14
2023-05-11T13:58:16.097Z,17.09
2023-05-11T14:00:53.344Z,17.10
2023-05-11T14:03:16.776Z,17.11
2023-05-11T14:05:52.704Z,17.12
2023-05-11T14:08:24.366Z,17.15
2023-05-11T14:10:53.270Z,17.21
2023-05-11T14:13:24.972Z,17.30
2023-05-11T14:15:52.670Z,17.24
2023-05-11T14:18:20.545Z,17.34
2023-05-11T14:20:52.078Z,17.17
2023-05-11T14:23:19.893Z,17.17
2023-05-11T14:25:49.371Z,17.24
2023-05-11T14:28:17.308Z,17.25
2023-05-11T14:30:52.340Z,17.29
2023-05-11T14:33:21.029Z,17.31
2023-05-11T14:35:52.426Z,17.29
2023-05-11T14:38:21.241Z,17.34
2023-05-11T14:40:50.471Z,17.38
2023-05-11T14:43:20.118Z,17.42
2023-05-11T14:46:13.439Z,17.32
2023-05-11T14:48:43.551Z,17.18
2023-05-11T14:51:11.309Z,17.22
2023-05-11T14:53:39.020Z,17.18
2023-05-11T14:56:07.366Z,17.02
2023-05-11T14:58:35.383Z,16.94
2023-05-11T15:01:04.480Z,16.95
2023-05-11T15:03:32.111Z,16.80
2023-05-11T15:06:00.728Z,16.75
2023-05-11T15:08:34.620Z,16.73
2023-05-11T15:11:04.293Z,16.65
2023-05-11T15:13:32.047Z,16.53
2023-05-11T15:15:59.774Z,16.53
2023-05-11T15:18:27.737Z,16.53
2023-05-11T15:20:55.613Z,16.39
2023-05-11T15:23:23.750Z,16.30
2023-05-11T15:25:57.873Z,16.27
2023-05-11T15:28:26.012Z,16.22
2023-05-11T15:30:53.845Z,16.16
2023-05-11T15:33:23.501Z,16.22
2023-05-11T15:35:53.787Z,16.17
2023-05-11T15:38:26.610Z,16.21
2023-05-11T15:41:05.868Z,16.19
2023-05-11T15:43:33.884Z,16.20
2023-05-11T15:46:03.084Z,16.18
2023-05-11T15:48:31.290Z,16.16
2023-05-11T15:51:02.367Z,16.14
2023-05-11T15:53:32.717Z,16.10
2023-05-11T15:56:00.449Z,16.09
2023-05-11T15:58:28.970Z,16.03
2023-05-11T16:00:58.736Z,16.01
2023-05-11T16:03:34.211Z,15.96
2023-05-11T16:06:06.710Z,15.90
2023-05-11T16:08:34.941Z,15.89
2023-05-11T16:11:02.893Z,15.89
2023-05-11T16:13:30.714Z,15.85
2023-05-11T16:15:59.152Z,15.87
2023-05-11T16:18:30.065Z,15.80
2023-05-11T16:20:57.652Z,15.83
2023-05-11T16:23:25.348Z,15.83
2023-05-11T16:25:53.353Z,15.92
2023-05-11T16:28:20.756Z,15.95
2023-05-11T16:30:48.452Z,15.93
2023-05-11T16:33:16.774Z,15.94
2023-05-11T16:35:44.332Z,15.86
2023-05-11T16:38:20.947Z,15.85
2023-05-11T16:40:51.413Z,15.78
2023-05-11T16:43:19.035Z,15.76
2023-05-11T16:45:47.405Z,15.70
2023-05-11T16:48:15.109Z,15.61
2023-05-11T16:50:42.701Z,15.55
2023-05-11T16:53:17.093Z,15.44
2023-05-11T16:55:45.032Z,15.39
2023-05-11T16:58:12.825Z,15.35
2023-05-11T17:00:44.850Z,15.31
2023-05-11T17:03:12.643Z,15.29
2023-05-11T17:05:40.929Z,15.18
2023-05-11T17:08:08.889Z,15.17
2023-05-11T17:10:36.712Z,15.11
2023-05-11T17:13:04.286Z,15.10
2023-05-11T17:15:35.426Z,15.08
2023-05-11T17:18:04.453Z,14.99
2023-05-11T17:20:31.973Z,14.96
2023-05-11T17:22:59.422Z,14.89
2023-05-11T17:25:28.798Z,14.85
2023-05-11T17:27:56.273Z,14.78
2023-05-11T17:30:30.114Z,14.73
2023-05-11T17:32:56.077Z,14.66
2023-05-11T17:35:26.605Z,14.53
2023-05-11T17:37:54.099Z,14.45
2023-05-11T17:40:21.795Z,14.36
2023-05-11T17:42:50.702Z,14.23
2023-05-11T17:45:18.931Z,14.14
2023-05-11T17:47:55.043Z,14.05
2023-05-11T17:50:24.001Z,13.98
2023-05-11T17:52:51.759Z,13.87
2023-05-11T17:55:19.761Z,13.77
2023-05-11T17:57:48.171Z,13.73
2023-05-11T18:00:16.645Z,13.67
2023-05-11T18:02:49.610Z,13.58
2023-05-11T18:08:35.991Z,13.45
2023-05-11T18:11:04.131Z,13.36
2023-05-11T18:13:31.747Z,13.32
2023-05-11T18:15:59.681Z,13.29
2023-05-11T18:18:27.776Z,13.23
2023-05-11T18:21:00.413Z,13.18
2023-05-11T18:23:40.495Z,13.12
2023-05-11T18:26:21.804Z,13.09
2023-05-11T18:28:49.390Z,13.04
2023-05-11T18:31:18.753Z,13.02
2023-05-11T18:33:51.856Z,13.01
2023-05-11T18:36:21.929Z,12.99
2023-05-11T18:38:49.617Z,12.99
2023-05-11T18:41:17.554Z,12.94
2023-05-11T18:43:45.218Z,12.85
2023-05-11T18:46:13.090Z,12.83
2023-05-11T18:48:40.889Z,12.79
2023-05-11T18:51:09.112Z,12.77
2023-05-11T18:53:36.989Z,12.76
2023-05-11T18:56:05.123Z,12.74
2023-05-11T18:58:35.044Z,12.74
2023-05-11T19:01:03.407Z,12.74
2023-05-11T19:03:34.089Z,12.73
2023-05-11T19:06:01.695Z,12.72
2023-05-11T19:08:29.576Z,12.70
2023-05-11T19:11:06.966Z,12.68
2023-05-11T19:13:35.353Z,12.65
2023-05-11T19:16:04.351Z,12.65
2023-05-11T19:18:34.427Z,12.61
2023-05-11T19:21:04.613Z,12.59
2023-05-11T19:23:33.372Z,12.58
2023-05-11T19:26:01.207Z,12.56
2023-05-11T19:28:29.100Z,12.54
2023-05-11T19:31:04.229Z,12.54
2023-05-11T19:33:32.335Z,12.52
2023-05-11T19:36:00.572Z,12.53
2023-05-11T19:38:30.553Z,12.51
2023-05-11T19:40:58.888Z,12.52
2023-05-11T19:43:27.559Z,12.51
2023-05-11T19:45:55.579Z,12.48
2023-05-11T19:48:23.550Z,12.45
2023-05-11T19:50:51.413Z,12.45
2023-05-11T19:53:19.346Z,12.44
2023-05-11T19:55:48.612Z,12.47
2023-05-11T19:58:18.203Z,12.48
2023-05-11T20:00:46.593Z,12.48
2023-05-11T20:03:15.304Z,12.49
2023-05-11T20:05:43.698Z,12.50
2023-05-11T20:08:12.544Z,12.50
2023-05-11T20:10:40.185Z,12.51
2023-05-11T20:13:08.026Z,12.54
2023-05-11T20:15:37.592Z,12.55
2023-05-11T20:18:07.930Z,12.55
2023-05-11T20:20:35.901Z,12.55
2023-05-11T20:23:04.365Z,12.55
2023-05-11T20:25:33.662Z,12.55
2023-05-11T20:28:01.269Z,12.54
2023-05-11T20:30:29.014Z,12.55
2023-05-11T20:35:26.346Z,12.53
2023-05-11T20:37:55.398Z,12.50
2023-05-11T20:40:26.417Z,12.47
2023-05-11T20:43:04.825Z,12.44
2023-05-11T20:45:32.596Z,12.38
2023-05-11T20:48:01.072Z,12.36
2023-05-11T20:50:29.607Z,12.34
2023-05-11T20:52:58.024Z,12.32
2023-05-11T20:55:29.047Z,12.30
2023-05-11T20:57:58.199Z,12.30
2023-05-11T21:00:26.128Z,12.30
2023-05-11T21:02:53.733Z,12.32
2023-05-11T21:05:24.152Z,12.29
2023-05-11T21:07:51.849Z,12.28
2023-05-11T21:10:21.456Z,12.29
2023-05-11T21:12:49.711Z,12.28
2023-05-11T21:15:17.549Z,12.27
2023-05-11T21:17:45.695Z,12.25
2023-05-11T21:20:13.677Z,12.23
2023-05-11T21:22:41.140Z,12.20
2023-05-11T21:25:08.955Z,12.20
2023-05-11T21:27:36.348Z,12.17
2023-05-11T21:30:05.106Z,12.14
2023-05-11T21:32:32.862Z,12.10
2023-05-11T21:35:00.742Z,12.08
2023-05-11T21:37:31.450Z,12.04
2023-05-11T21:40:00.054Z,12.03
2023-05-11T21:42:30.285Z,12.03
2023-05-11T21:44:58.316Z,12.01
2023-05-11T21:47:26.048Z,12.01
2023-05-11T21:49:53.771Z,11.98
2023-05-11T21:52:21.720Z,12.00
2023-05-11T21:54:49.575Z,11.98
2023-05-11T21:57:17.253Z,11.96
2023-05-11T21:59:45.223Z,11.96
2023-05-11T22:02:13.005Z,11.91
2023-05-11T22:04:41.671Z,11.93
2023-05-11T22:07:09.459Z,11.93
2023-05-11T22:09:37.218Z,11.92
2023-05-11T22:12:05.725Z,11.89
2023-05-11T22:14:33.871Z,11.89
2023-05-11T22:17:01.528Z,11.87
2023-05-11T22:19:29.529Z,11.82
2023-05-11T22:21:57.355Z,11.77
2023-05-11T22:24:26.575Z,11.77
2023-05-11T22:26:55.563Z,11.71
2023-05-11T22:29:23.266Z,11.70
2023-05-11T22:31:50.983Z,11.63
2023-05-11T22:34:21.228Z,11.58
2023-05-11T22:36:48.935Z,11.50
2023-05-11T22:39:17.168Z,11.50
2023-05-11T22:41:45.020Z,11.42
2023-05-11T22:44:13.201Z,11.41
2023-05-11T22:46:41.012Z,11.38
2023-05-11T22:49:09.347Z,11.32
2023-05-11T22:51:37.423Z,11.27
2023-05-11T22:54:05.551Z,11.24
2023-05-11T22:56:34.151Z,11.19
2023-05-11T22:59:01.770Z,11.14
2023-05-11T23:01:29.350Z,11.10
2023-05-11T23:03:58.823Z,11.07
2023-05-11T23:06:29.185Z,11.03
2023-05-11T23:08:58.611Z,11.01
2023-05-11T23:11:26.298Z,10.97
2023-05-11T23:13:53.950Z,10.91
2023-05-11T23:16:22.761Z,10.87
2023-05-11T23:18:50.648Z,10.82
2023-05-11T23:21:18.193Z,10.77
2023-05-11T23:23:45.768Z,10.73
2023-05-11T23:26:13.556Z,10.69
2023-05-11T23:28:41.094Z,10.64
2023-05-11T23:31:08.702Z,10.58
2023-05-11T23:33:36.440Z,10.54
2023-05-11T23:36:05.442Z,10.50
2023-05-11T23:38:32.988Z,10.47
2023-05-11T23:41:00.602Z,10.43
2023-05-11T23:43:28.454Z,10.40
2023-05-11T23:45:57.007Z,10.37
2023-05-11T23:48:24.703Z,10.35
2023-05-11T23:50:52.233Z,10.33
2023-05-11T23:53:19.729Z,10.24
2023-05-11T23:55:47.961Z,10.15
2023-05-11T23:58:15.752Z,10.08
